sensor_id;sensor_type;location;lat;lon;timestamp;temperature;humidity
6518;DHT22;3292;48.944;9.240;2024-02-14T00:02:18;3.50;99.90
6518;DHT22;3292;48.944;9.240;2024-02-14T00:04:45;3.50;99.90
6518;DHT22;3292;48.944;9.240;2024-02-14T00:07:11;3.50;99.90
6518;DHT22;3292;48.944;9.240;2024-02-14T00:09:38;3.40;99.90
6518;DHT22;3292;48.944;9.240;2024-02-14T00:12:05;3.40;99.90
6518;DHT22;3292;48.944;9.240;2024-02-14T00:14:35;3.40;99.90
6518;DHT22;3292;48.944;9.240;2024-02-14T00:17:03;3.40;99.90
6518;DHT22;3292;48.944;9.240;2024-02-14T00:19:31;3.40;99.90
6518;DHT22;3292;48.944;9.240;2024-02-14T00:21:58;3.40;99.90
6518;DHT22;3292;48.944;9.240;2024-02-14T00:24:25;3.30;99.90
6518;DHT22;3292;48.944;9.240;2024-02-14T00:26:54;3.30;99.90
6518;DHT22;3292;48.944;9.240;2024-02-14T00:29:22;3.30;99.90
6518;DHT22;3292;48.944;9.240;2024-02-14T00:31:51;3.30;99.90
6518;DHT22;3292;48.944;9.240;2024-02-14T00:34:17;3.20;99.90
6518;DHT22;3292;48.944;9.240;2024-02-14T00:36:44;3.20;99.90
6518;DHT22;3292;48.944;9.240;2024-02-14T00:39:12;3.20;99.90
6518;DHT22;3292;48.944;9.240;2024-02-14T00:41:38;3.30;99.90
6518;DHT22;3292;48.944;9.240;2024-02-14T00:44:05;3.30;99.90
6518;DHT22;3292;48.944;9.240;2024-02-14T00:46:32;3.30;99.90
6518;DHT22;3292;48.944;9.240;2024-02-14T00:49:00;3.30;99.90
6518;DHT22;3292;48.944;9.240;2024-02-14T00:51:27;3.40;99.90
6518;DHT22;3292;48.944;9.240;2024-02-14T00:53:56;3.40;99.90
6518;DHT22;3292;48.944;9.240;2024-02-14T00:56:23;3.40;99.90
6518;DHT22;3292;48.944;9.240;2024-02-14T00:58:50;3.40;99.90
6518;DHT22;3292;48.944;9.240;2024-02-14T01:01:17;3.40;99.90
6518;DHT22;3292;48.944;9.240;2024-02-14T01:03:43;3.50;99.90
6518;DHT22;3292;48.944;9.240;2024-02-14T01:06:12;3.40;99.90
6518;DHT22;3292;48.944;9.240;2024-02-14T01:08:40;3.50;99.90
6518;DHT22;3292;48.944;9.240;2024-02-14T01:11:08;3.50;99.90
6518;DHT22;3292;48.944;9.240;2024-02-14T01:13:34;3.50;99.90
6518;DHT22;3292;48.944;9.240;2024-02-14T01:16:02;3.50;99.90
6518;DHT22;3292;48.944;9.240;2024-02-14T01:18:29;3.50;99.90
6518;DHT22;3292;48.944;9.240;2024-02-14T01:20:56;3.60;99.90
6518;DHT22;3292;48.944;9.240;2024-02-14T01:23:25;3.60;99.90
6518;DHT22;3292;48.944;9.240;2024-02-14T01:25:52;3.60;99.90
6518;DHT22;3292;48.944;9.240;2024-02-14T01:28:20;3.60;99.90
6518;DHT22;3292;48.944;9.240;2024-02-14T01:30:47;3.70;99.90
6518;DHT22;3292;48.944;9.240;2024-02-14T01:33:14;3.70;99.90
6518;DHT22;3292;48.944;9.240;2024-02-14T01:35:42;3.70;99.90
6518;DHT22;3292;48.944;9.240;2024-02-14T01:38:09;3.80;99.90
6518;DHT22;3292;48.944;9.240;2024-02-14T01:40:42;3.80;99.90
6518;DHT22;3292;48.944;9.240;2024-02-14T01:43:09;3.80;99.90
6518;DHT22;3292;48.944;9.240;2024-02-14T01:45:37;3.80;99.90
6518;DHT22;3292;48.944;9.240;2024-02-14T01:48:05;3.80;99.90
6518;DHT22;3292;48.944;9.240;2024-02-14T01:50:33;3.70;99.90
6518;DHT22;3292;48.944;9.240;2024-02-14T01:53:00;3.80;99.90
6518;DHT22;3292;48.944;9.240;2024-02-14T01:55:28;3.80;99.90
6518;DHT22;3292;48.944;9.240;2024-02-14T01:57:56;3.80;99.90
6518;DHT22;3292;48.944;9.240;2024-02-14T02:00:24;3.80;99.90
6518;DHT22;3292;48.944;9.240;2024-02-14T02:02:51;3.80;99.90
6518;DHT22;3292;48.944;9.240;2024-02-14T02:05:19;3.90;99.90
6518;DHT22;3292;48.944;9.240;2024-02-14T02:07:46;3.90;99.90
6518;DHT22;3292;48.944;9.240;2024-02-14T02:10:14;3.90;99.90
6518;DHT22;3292;48.944;9.240;2024-02-14T02:12:41;3.90;99.90
6518;DHT22;3292;48.944;9.240;2024-02-14T02:15:09;3.90;99.90
6518;DHT22;3292;48.944;9.240;2024-02-14T02:17:39;3.90;99.90
6518;DHT22;3292;48.944;9.240;2024-02-14T02:20:06;3.90;99.90
6518;DHT22;3292;48.944;9.240;2024-02-14T02:22:34;3.90;99.90
6518;DHT22;3292;48.944;9.240;2024-02-14T02:25:03;4.00;99.90
6518;DHT22;3292;48.944;9.240;2024-02-14T02:27:33;3.90;99.90
6518;DHT22;3292;48.944;9.240;2024-02-14T02:30:03;4.00;99.90
6518;DHT22;3292;48.944;9.240;2024-02-14T02:32:30;4.00;99.90
6518;DHT22;3292;48.944;9.240;2024-02-14T02:34:57;4.10;99.90
6518;DHT22;3292;48.944;9.240;2024-02-14T02:37:25;4.10;99.90
6518;DHT22;3292;48.944;9.240;2024-02-14T02:39:55;4.20;99.90
6518;DHT22;3292;48.944;9.240;2024-02-14T02:42:23;4.20;99.90
6518;DHT22;3292;48.944;9.240;2024-02-14T02:44:50;4.20;99.90
6518;DHT22;3292;48.944;9.240;2024-02-14T02:47:17;4.20;99.90
6518;DHT22;3292;48.944;9.240;2024-02-14T02:49:44;4.30;99.90
6518;DHT22;3292;48.944;9.240;2024-02-14T02:52:11;4.30;99.90
6518;DHT22;3292;48.944;9.240;2024-02-14T02:54:38;4.30;99.90
6518;DHT22;3292;48.944;9.240;2024-02-14T02:57:06;4.30;99.90
6518;DHT22;3292;48.944;9.240;2024-02-14T02:59:34;4.40;99.90
6518;DHT22;3292;48.944;9.240;2024-02-14T03:02:04;4.50;99.90
6518;DHT22;3292;48.944;9.240;2024-02-14T03:04:35;4.50;99.90
6518;DHT22;3292;48.944;9.240;2024-02-14T03:07:02;4.50;99.90
6518;DHT22;3292;48.944;9.240;2024-02-14T03:09:33;4.50;99.90
6518;DHT22;3292;48.944;9.240;2024-02-14T03:12:00;4.50;99.90
6518;DHT22;3292;48.944;9.240;2024-02-14T03:14:29;4.60;99.90
6518;DHT22;3292;48.944;9.240;2024-02-14T03:16:59;4.70;99.90
6518;DHT22;3292;48.944;9.240;2024-02-14T03:19:27;4.70;99.90
6518;DHT22;3292;48.944;9.240;2024-02-14T03:21:54;4.70;99.90
6518;DHT22;3292;48.944;9.240;2024-02-14T03:24:24;4.80;99.90
6518;DHT22;3292;48.944;9.240;2024-02-14T03:26:52;4.70;99.90
6518;DHT22;3292;48.944;9.240;2024-02-14T03:29:19;4.70;99.90
6518;DHT22;3292;48.944;9.240;2024-02-14T03:31:46;4.70;99.90
6518;DHT22;3292;48.944;9.240;2024-02-14T03:34:15;4.70;99.90
6518;DHT22;3292;48.944;9.240;2024-02-14T03:36:42;4.60;99.90
6518;DHT22;3292;48.944;9.240;2024-02-14T03:39:09;4.60;99.90
6518;DHT22;3292;48.944;9.240;2024-02-14T03:41:37;4.50;99.90
6518;DHT22;3292;48.944;9.240;2024-02-14T03:44:03;4.60;99.90
6518;DHT22;3292;48.944;9.240;2024-02-14T03:46:32;4.60;99.90
6518;DHT22;3292;48.944;9.240;2024-02-14T03:49:00;4.60;99.90
6518;DHT22;3292;48.944;9.240;2024-02-14T03:51:29;4.60;99.90
6518;DHT22;3292;48.944;9.240;2024-02-14T03:53:56;4.60;99.90
6518;DHT22;3292;48.944;9.240;2024-02-14T03:56:24;4.60;99.90
6518;DHT22;3292;48.944;9.240;2024-02-14T03:58:51;4.60;99.90
6518;DHT22;3292;48.944;9.240;2024-02-14T04:01:18;4.60;99.90
6518;DHT22;3292;48.944;9.240;2024-02-14T04:03:46;4.70;99.90
6518;DHT22;3292;48.944;9.240;2024-02-14T04:06:13;4.80;99.90
6518;DHT22;3292;48.944;9.240;2024-02-14T04:08:41;4.90;99.90
6518;DHT22;3292;48.944;9.240;2024-02-14T04:11:08;4.90;99.90
6518;DHT22;3292;48.944;9.240;2024-02-14T04:13:35;5.00;99.90
6518;DHT22;3292;48.944;9.240;2024-02-14T04:16:02;5.00;99.90
6518;DHT22;3292;48.944;9.240;2024-02-14T04:18:29;5.00;99.90
6518;DHT22;3292;48.944;9.240;2024-02-14T04:20:56;5.10;99.90
6518;DHT22;3292;48.944;9.240;2024-02-14T04:23:23;5.10;99.90
6518;DHT22;3292;48.944;9.240;2024-02-14T04:25:52;5.10;99.90
6518;DHT22;3292;48.944;9.240;2024-02-14T04:28:19;5.10;99.90
6518;DHT22;3292;48.944;9.240;2024-02-14T04:30:45;5.10;99.90
6518;DHT22;3292;48.944;9.240;2024-02-14T04:33:13;5.10;99.90
6518;DHT22;3292;48.944;9.240;2024-02-14T04:35:40;5.10;99.90
6518;DHT22;3292;48.944;9.240;2024-02-14T04:38:07;5.10;99.90
6518;DHT22;3292;48.944;9.240;2024-02-14T04:40:35;5.10;99.90
6518;DHT22;3292;48.944;9.240;2024-02-14T04:43:05;5.20;99.90
6518;DHT22;3292;48.944;9.240;2024-02-14T04:45:32;5.20;99.90
6518;DHT22;3292;48.944;9.240;2024-02-14T04:48:00;5.20;99.90
6518;DHT22;3292;48.944;9.240;2024-02-14T04:50:27;5.20;99.90
6518;DHT22;3292;48.944;9.240;2024-02-14T04:52:56;5.30;99.90
6518;DHT22;3292;48.944;9.240;2024-02-14T04:55:23;5.30;99.90
6518;DHT22;3292;48.944;9.240;2024-02-14T04:57:49;5.40;99.90
6518;DHT22;3292;48.944;9.240;2024-02-14T05:00:18;5.40;99.90
6518;DHT22;3292;48.944;9.240;2024-02-14T05:02:45;5.50;99.90
6518;DHT22;3292;48.944;9.240;2024-02-14T05:05:12;5.50;99.90
6518;DHT22;3292;48.944;9.240;2024-02-14T05:07:39;5.50;99.90
6518;DHT22;3292;48.944;9.240;2024-02-14T05:10:09;5.60;99.90
6518;DHT22;3292;48.944;9.240;2024-02-14T05:12:36;5.60;99.90
6518;DHT22;3292;48.944;9.240;2024-02-14T05:15:04;5.70;99.90
6518;DHT22;3292;48.944;9.240;2024-02-14T05:17:32;5.70;99.90
6518;DHT22;3292;48.944;9.240;2024-02-14T05:20:00;5.70;99.90
6518;DHT22;3292;48.944;9.240;2024-02-14T05:22:27;5.80;99.90
6518;DHT22;3292;48.944;9.240;2024-02-14T05:24:53;5.80;99.90
6518;DHT22;3292;48.944;9.240;2024-02-14T05:27:20;5.90;99.90
6518;DHT22;3292;48.944;9.240;2024-02-14T05:29:47;6.00;99.90
6518;DHT22;3292;48.944;9.240;2024-02-14T05:32:14;6.00;99.90
6518;DHT22;3292;48.944;9.240;2024-02-14T05:34:42;6.10;99.90
6518;DHT22;3292;48.944;9.240;2024-02-14T05:37:09;6.10;99.90
6518;DHT22;3292;48.944;9.240;2024-02-14T05:39:36;6.10;99.90
6518;DHT22;3292;48.944;9.240;2024-02-14T05:42:04;6.10;99.90
6518;DHT22;3292;48.944;9.240;2024-02-14T05:44:31;6.10;99.90
6518;DHT22;3292;48.944;9.240;2024-02-14T05:46:58;6.10;99.90
6518;DHT22;3292;48.944;9.240;2024-02-14T05:49:25;6.10;99.90
6518;DHT22;3292;48.944;9.240;2024-02-14T05:51:54;6.10;99.90
6518;DHT22;3292;48.944;9.240;2024-02-14T05:54:21;6.10;99.90
6518;DHT22;3292;48.944;9.240;2024-02-14T05:56:47;6.10;99.90
6518;DHT22;3292;48.944;9.240;2024-02-14T05:59:14;6.10;99.90
6518;DHT22;3292;48.944;9.240;2024-02-14T06:01:41;6.20;99.90
6518;DHT22;3292;48.944;9.240;2024-02-14T06:04:08;6.20;99.90
6518;DHT22;3292;48.944;9.240;2024-02-14T06:06:35;6.20;99.90
6518;DHT22;3292;48.944;9.240;2024-02-14T06:09:03;6.30;99.90
6518;DHT22;3292;48.944;9.240;2024-02-14T06:11:35;6.30;99.90
6518;DHT22;3292;48.944;9.240;2024-02-14T06:14:04;6.30;99.90
6518;DHT22;3292;48.944;9.240;2024-02-14T06:16:31;6.30;99.90
6518;DHT22;3292;48.944;9.240;2024-02-14T06:18:59;6.20;99.90
6518;DHT22;3292;48.944;9.240;2024-02-14T06:21:26;6.20;99.90
6518;DHT22;3292;48.944;9.240;2024-02-14T06:23:53;6.20;99.90
6518;DHT22;3292;48.944;9.240;2024-02-14T06:26:21;6.20;99.90
6518;DHT22;3292;48.944;9.240;2024-02-14T06:28:48;6.20;99.90
6518;DHT22;3292;48.944;9.240;2024-02-14T06:31:19;6.20;99.90
6518;DHT22;3292;48.944;9.240;2024-02-14T06:33:46;6.20;99.90
6518;DHT22;3292;48.944;9.240;2024-02-14T06:36:13;6.20;99.90
6518;DHT22;3292;48.944;9.240;2024-02-14T06:38:40;6.20;99.90
6518;DHT22;3292;48.944;9.240;2024-02-14T06:41:07;6.20;99.90
6518;DHT22;3292;48.944;9.240;2024-02-14T06:43:35;6.20;99.90
6518;DHT22;3292;48.944;9.240;2024-02-14T06:46:04;6.20;99.90
6518;DHT22;3292;48.944;9.240;2024-02-14T06:48:31;6.20;99.90
6518;DHT22;3292;48.944;9.240;2024-02-14T06:50:58;6.30;99.90
6518;DHT22;3292;48.944;9.240;2024-02-14T06:53:25;6.30;99.90
6518;DHT22;3292;48.944;9.240;2024-02-14T06:55:51;6.30;99.90
6518;DHT22;3292;48.944;9.240;2024-02-14T06:58:18;6.30;99.90
6518;DHT22;3292;48.944;9.240;2024-02-14T07:00:46;6.30;99.90
6518;DHT22;3292;48.944;9.240;2024-02-14T07:03:13;6.30;99.90
6518;DHT22;3292;48.944;9.240;2024-02-14T07:05:40;6.30;99.90
6518;DHT22;3292;48.944;9.240;2024-02-14T07:08:07;6.40;99.90
6518;DHT22;3292;48.944;9.240;2024-02-14T07:10:34;6.40;99.90
6518;DHT22;3292;48.944;9.240;2024-02-14T07:13:01;6.30;99.90
6518;DHT22;3292;48.944;9.240;2024-02-14T07:15:28;6.30;99.90
6518;DHT22;3292;48.944;9.240;2024-02-14T07:17:56;6.30;99.90
6518;DHT22;3292;48.944;9.240;2024-02-14T07:20:24;6.30;99.90
6518;DHT22;3292;48.944;9.240;2024-02-14T07:22:52;6.30;99.90
6518;DHT22;3292;48.944;9.240;2024-02-14T07:25:20;6.30;99.90
6518;DHT22;3292;48.944;9.240;2024-02-14T07:27:47;6.30;99.90
6518;DHT22;3292;48.944;9.240;2024-02-14T07:30:15;6.30;99.90
6518;DHT22;3292;48.944;9.240;2024-02-14T07:32:42;6.30;99.90
6518;DHT22;3292;48.944;9.240;2024-02-14T07:35:11;6.30;99.90
6518;DHT22;3292;48.944;9.240;2024-02-14T07:37:38;6.40;99.90
6518;DHT22;3292;48.944;9.240;2024-02-14T07:40:06;6.40;99.90
6518;DHT22;3292;48.944;9.240;2024-02-14T07:42:33;6.50;99.90
6518;DHT22;3292;48.944;9.240;2024-02-14T07:45:00;6.50;99.90
6518;DHT22;3292;48.944;9.240;2024-02-14T07:47:29;6.60;99.90
6518;DHT22;3292;48.944;9.240;2024-02-14T07:49:55;6.70;99.90
6518;DHT22;3292;48.944;9.240;2024-02-14T07:52:24;6.90;99.90
6518;DHT22;3292;48.944;9.240;2024-02-14T07:54:52;6.90;99.90
6518;DHT22;3292;48.944;9.240;2024-02-14T07:57:20;6.90;99.90
6518;DHT22;3292;48.944;9.240;2024-02-14T07:59:46;7.00;99.90
6518;DHT22;3292;48.944;9.240;2024-02-14T08:02:13;7.00;99.90
6518;DHT22;3292;48.944;9.240;2024-02-14T08:04:40;7.00;99.90
6518;DHT22;3292;48.944;9.240;2024-02-14T08:07:07;7.10;99.90
6518;DHT22;3292;48.944;9.240;2024-02-14T08:09:36;7.10;99.90
6518;DHT22;3292;48.944;9.240;2024-02-14T08:12:04;7.10;99.90
6518;DHT22;3292;48.944;9.240;2024-02-14T08:14:31;7.20;99.90
6518;DHT22;3292;48.944;9.240;2024-02-14T08:16:59;7.20;99.90
6518;DHT22;3292;48.944;9.240;2024-02-14T08:19:25;7.20;99.90
6518;DHT22;3292;48.944;9.240;2024-02-14T08:21:52;7.20;99.90
6518;DHT22;3292;48.944;9.240;2024-02-14T08:24:25;7.30;99.90
6518;DHT22;3292;48.944;9.240;2024-02-14T08:26:53;7.30;99.90
6518;DHT22;3292;48.944;9.240;2024-02-14T08:29:20;7.30;99.90
6518;DHT22;3292;48.944;9.240;2024-02-14T08:31:47;7.40;99.90
6518;DHT22;3292;48.944;9.240;2024-02-14T08:34:14;7.40;99.90
6518;DHT22;3292;48.944;9.240;2024-02-14T08:36:42;7.50;99.90
6518;DHT22;3292;48.944;9.240;2024-02-14T08:39:09;7.60;99.90
6518;DHT22;3292;48.944;9.240;2024-02-14T08:41:36;7.70;99.90
6518;DHT22;3292;48.944;9.240;2024-02-14T08:44:05;7.80;99.90
6518;DHT22;3292;48.944;9.240;2024-02-14T08:46:31;7.90;99.90
6518;DHT22;3292;48.944;9.240;2024-02-14T08:49:00;8.00;99.90
6518;DHT22;3292;48.944;9.240;2024-02-14T08:51:28;8.00;99.90
6518;DHT22;3292;48.944;9.240;2024-02-14T08:53:55;8.00;99.90
6518;DHT22;3292;48.944;9.240;2024-02-14T08:56:25;8.10;99.90
6518;DHT22;3292;48.944;9.240;2024-02-14T08:58:51;8.10;99.90
6518;DHT22;3292;48.944;9.240;2024-02-14T09:01:20;8.10;99.90
6518;DHT22;3292;48.944;9.240;2024-02-14T09:03:47;8.20;99.90
6518;DHT22;3292;48.944;9.240;2024-02-14T09:06:14;8.20;99.90
6518;DHT22;3292;48.944;9.240;2024-02-14T09:08:43;8.20;99.90
6518;DHT22;3292;48.944;9.240;2024-02-14T09:11:10;8.30;99.90
6518;DHT22;3292;48.944;9.240;2024-02-14T09:13:37;8.40;99.90
6518;DHT22;3292;48.944;9.240;2024-02-14T09:16:06;8.40;99.90
6518;DHT22;3292;48.944;9.240;2024-02-14T09:18:34;8.40;99.90
6518;DHT22;3292;48.944;9.240;2024-02-14T09:21:01;8.40;99.90
6518;DHT22;3292;48.944;9.240;2024-02-14T09:23:29;8.40;99.90
6518;DHT22;3292;48.944;9.240;2024-02-14T09:25:57;8.40;99.90
6518;DHT22;3292;48.944;9.240;2024-02-14T09:28:24;8.40;99.90
6518;DHT22;3292;48.944;9.240;2024-02-14T09:30:51;8.40;99.90
6518;DHT22;3292;48.944;9.240;2024-02-14T09:33:18;8.50;99.90
6518;DHT22;3292;48.944;9.240;2024-02-14T09:35:47;8.60;99.90
6518;DHT22;3292;48.944;9.240;2024-02-14T09:38:14;8.60;99.90
6518;DHT22;3292;48.944;9.240;2024-02-14T09:40:41;8.70;99.90
6518;DHT22;3292;48.944;9.240;2024-02-14T09:43:14;8.70;99.90
6518;DHT22;3292;48.944;9.240;2024-02-14T09:45:44;8.80;99.90
6518;DHT22;3292;48.944;9.240;2024-02-14T09:48:12;8.90;99.90
6518;DHT22;3292;48.944;9.240;2024-02-14T09:50:39;9.00;99.90
6518;DHT22;3292;48.944;9.240;2024-02-14T09:53:09;9.20;99.90
6518;DHT22;3292;48.944;9.240;2024-02-14T09:55:36;9.30;99.90
6518;DHT22;3292;48.944;9.240;2024-02-14T09:58:05;9.40;99.90
6518;DHT22;3292;48.944;9.240;2024-02-14T10:00:32;9.60;99.90
6518;DHT22;3292;48.944;9.240;2024-02-14T10:02:59;9.70;99.90
6518;DHT22;3292;48.944;9.240;2024-02-14T10:05:26;9.70;99.90
6518;DHT22;3292;48.944;9.240;2024-02-14T10:07:56;9.80;99.90
6518;DHT22;3292;48.944;9.240;2024-02-14T10:10:24;9.90;99.90
6518;DHT22;3292;48.944;9.240;2024-02-14T10:12:53;10.00;99.90
6518;DHT22;3292;48.944;9.240;2024-02-14T10:15:20;10.10;99.90
6518;DHT22;3292;48.944;9.240;2024-02-14T10:17:47;10.10;99.90
6518;DHT22;3292;48.944;9.240;2024-02-14T10:20:17;10.20;99.90
6518;DHT22;3292;48.944;9.240;2024-02-14T10:22:44;10.10;99.90
6518;DHT22;3292;48.944;9.240;2024-02-14T10:25:11;10.20;99.90
6518;DHT22;3292;48.944;9.240;2024-02-14T10:27:41;10.20;99.90
6518;DHT22;3292;48.944;9.240;2024-02-14T10:30:09;10.30;99.90
6518;DHT22;3292;48.944;9.240;2024-02-14T10:32:36;10.40;99.90
6518;DHT22;3292;48.944;9.240;2024-02-14T10:35:04;10.40;99.90
6518;DHT22;3292;48.944;9.240;2024-02-14T10:37:34;10.50;99.90
6518;DHT22;3292;48.944;9.240;2024-02-14T10:40:02;10.60;99.90
6518;DHT22;3292;48.944;9.240;2024-02-14T10:42:29;10.60;99.90
6518;DHT22;3292;48.944;9.240;2024-02-14T10:44:58;10.70;99.90
6518;DHT22;3292;48.944;9.240;2024-02-14T10:47:30;10.90;99.90
6518;DHT22;3292;48.944;9.240;2024-02-14T10:49:58;11.10;99.90
6518;DHT22;3292;48.944;9.240;2024-02-14T10:52:28;11.20;99.90
6518;DHT22;3292;48.944;9.240;2024-02-14T10:54:57;11.40;99.90
6518;DHT22;3292;48.944;9.240;2024-02-14T10:57:24;11.50;99.90
6518;DHT22;3292;48.944;9.240;2024-02-14T10:59:53;11.60;99.90
6518;DHT22;3292;48.944;9.240;2024-02-14T11:02:22;11.80;99.90
6518;DHT22;3292;48.944;9.240;2024-02-14T11:04:49;11.90;99.90
6518;DHT22;3292;48.944;9.240;2024-02-14T11:07:20;11.90;99.90
6518;DHT22;3292;48.944;9.240;2024-02-14T11:09:48;11.90;99.90
6518;DHT22;3292;48.944;9.240;2024-02-14T11:12:26;12.00;99.90
6518;DHT22;3292;48.944;9.240;2024-02-14T11:14:57;12.00;99.90
6518;DHT22;3292;48.944;9.240;2024-02-14T11:17:27;12.00;99.90
6518;DHT22;3292;48.944;9.240;2024-02-14T11:19:54;11.90;99.90
6518;DHT22;3292;48.944;9.240;2024-02-14T11:22:21;12.00;99.90
6518;DHT22;3292;48.944;9.240;2024-02-14T11:24:48;11.90;99.90
6518;DHT22;3292;48.944;9.240;2024-02-14T11:27:18;11.90;99.90
6518;DHT22;3292;48.944;9.240;2024-02-14T11:29:51;11.80;99.90
6518;DHT22;3292;48.944;9.240;2024-02-14T11:32:19;11.70;99.90
6518;DHT22;3292;48.944;9.240;2024-02-14T11:34:53;11.70;99.90
6518;DHT22;3292;48.944;9.240;2024-02-14T11:37:27;11.60;99.90
6518;DHT22;3292;48.944;9.240;2024-02-14T11:39:54;11.60;99.90
6518;DHT22;3292;48.944;9.240;2024-02-14T11:42:22;11.60;99.90
6518;DHT22;3292;48.944;9.240;2024-02-14T11:44:48;11.50;99.90
6518;DHT22;3292;48.944;9.240;2024-02-14T11:47:15;11.60;99.90
6518;DHT22;3292;48.944;9.240;2024-02-14T11:49:43;11.50;99.90
6518;DHT22;3292;48.944;9.240;2024-02-14T11:52:12;11.50;99.90
6518;DHT22;3292;48.944;9.240;2024-02-14T11:54:46;11.50;99.90
6518;DHT22;3292;48.944;9.240;2024-02-14T11:57:17;11.50;99.90
6518;DHT22;3292;48.944;9.240;2024-02-14T11:59:44;11.50;99.90
6518;DHT22;3292;48.944;9.240;2024-02-14T12:02:12;11.60;99.90
6518;DHT22;3292;48.944;9.240;2024-02-14T12:04:39;11.50;99.90
6518;DHT22;3292;48.944;9.240;2024-02-14T12:07:07;11.50;99.90
6518;DHT22;3292;48.944;9.240;2024-02-14T12:09:35;11.50;99.90
6518;DHT22;3292;48.944;9.240;2024-02-14T12:12:02;11.50;99.90
6518;DHT22;3292;48.944;9.240;2024-02-14T12:14:32;11.60;99.90
6518;DHT22;3292;48.944;9.240;2024-02-14T12:17:00;11.60;99.90
6518;DHT22;3292;48.944;9.240;2024-02-14T12:19:28;11.70;99.90
6518;DHT22;3292;48.944;9.240;2024-02-14T12:21:55;11.70;99.90
6518;DHT22;3292;48.944;9.240;2024-02-14T12:24:27;11.80;99.90
6518;DHT22;3292;48.944;9.240;2024-02-14T12:26:55;11.90;99.90
6518;DHT22;3292;48.944;9.240;2024-02-14T12:29:23;11.90;99.90
6518;DHT22;3292;48.944;9.240;2024-02-14T12:31:50;12.00;99.90
6518;DHT22;3292;48.944;9.240;2024-02-14T12:34:17;12.00;99.90
6518;DHT22;3292;48.944;9.240;2024-02-14T12:36:45;12.20;99.90
6518;DHT22;3292;48.944;9.240;2024-02-14T12:39:12;12.30;99.90
6518;DHT22;3292;48.944;9.240;2024-02-14T12:41:39;12.50;99.90
6518;DHT22;3292;48.944;9.240;2024-02-14T12:44:07;12.50;99.90
6518;DHT22;3292;48.944;9.240;2024-02-14T12:46:34;12.50;99.90
6518;DHT22;3292;48.944;9.240;2024-02-14T12:49:03;12.60;99.90
6518;DHT22;3292;48.944;9.240;2024-02-14T12:51:30;12.60;99.90
6518;DHT22;3292;48.944;9.240;2024-02-14T12:53:57;12.70;99.90
6518;DHT22;3292;48.944;9.240;2024-02-14T12:56:24;12.80;99.90
6518;DHT22;3292;48.944;9.240;2024-02-14T12:58:52;12.80;99.90
6518;DHT22;3292;48.944;9.240;2024-02-14T13:01:20;12.80;99.90
6518;DHT22;3292;48.944;9.240;2024-02-14T13:03:47;12.80;99.90
6518;DHT22;3292;48.944;9.240;2024-02-14T13:06:13;12.90;99.90
6518;DHT22;3292;48.944;9.240;2024-02-14T13:08:41;13.00;99.90
6518;DHT22;3292;48.944;9.240;2024-02-14T13:11:08;13.10;99.90
6518;DHT22;3292;48.944;9.240;2024-02-14T13:13:36;13.10;99.90
6518;DHT22;3292;48.944;9.240;2024-02-14T13:16:03;13.20;99.90
6518;DHT22;3292;48.944;9.240;2024-02-14T13:18:33;13.10;99.90
6518;DHT22;3292;48.944;9.240;2024-02-14T13:21:00;13.10;99.90
6518;DHT22;3292;48.944;9.240;2024-02-14T13:23:27;13.20;99.90
6518;DHT22;3292;48.944;9.240;2024-02-14T13:25:54;13.30;99.90
6518;DHT22;3292;48.944;9.240;2024-02-14T13:28:21;13.40;99.90
6518;DHT22;3292;48.944;9.240;2024-02-14T13:30:47;13.60;99.90
6518;DHT22;3292;48.944;9.240;2024-02-14T13:33:14;13.60;99.90
6518;DHT22;3292;48.944;9.240;2024-02-14T13:35:42;13.60;99.90
6518;DHT22;3292;48.944;9.240;2024-02-14T13:38:09;13.60;99.90
6518;DHT22;3292;48.944;9.240;2024-02-14T13:40:36;13.70;99.90
6518;DHT22;3292;48.944;9.240;2024-02-14T13:43:03;13.60;99.90
6518;DHT22;3292;48.944;9.240;2024-02-14T13:45:40;13.70;99.90
6518;DHT22;3292;48.944;9.240;2024-02-14T13:48:08;13.60;99.90
6518;DHT22;3292;48.944;9.240;2024-02-14T13:50:35;13.60;99.90
6518;DHT22;3292;48.944;9.240;2024-02-14T13:53:03;13.50;99.90
6518;DHT22;3292;48.944;9.240;2024-02-14T13:55:30;13.50;99.90
6518;DHT22;3292;48.944;9.240;2024-02-14T13:57:57;13.40;99.90
6518;DHT22;3292;48.944;9.240;2024-02-14T14:00:23;13.50;99.90
6518;DHT22;3292;48.944;9.240;2024-02-14T14:02:50;13.40;99.90
6518;DHT22;3292;48.944;9.240;2024-02-14T14:05:17;13.40;99.90
6518;DHT22;3292;48.944;9.240;2024-02-14T14:07:44;13.30;99.90
6518;DHT22;3292;48.944;9.240;2024-02-14T14:10:13;13.30;99.90
6518;DHT22;3292;48.944;9.240;2024-02-14T14:12:40;13.30;99.90
6518;DHT22;3292;48.944;9.240;2024-02-14T14:15:08;13.20;99.90
6518;DHT22;3292;48.944;9.240;2024-02-14T14:17:35;13.30;99.90
6518;DHT22;3292;48.944;9.240;2024-02-14T14:20:02;13.30;99.90
6518;DHT22;3292;48.944;9.240;2024-02-14T14:22:29;13.40;99.90
6518;DHT22;3292;48.944;9.240;2024-02-14T14:24:55;13.50;99.90
6518;DHT22;3292;48.944;9.240;2024-02-14T14:27:23;13.40;99.90
6518;DHT22;3292;48.944;9.240;2024-02-14T14:29:50;13.30;99.90
6518;DHT22;3292;48.944;9.240;2024-02-14T14:32:17;13.20;99.90
6518;DHT22;3292;48.944;9.240;2024-02-14T14:34:44;13.20;99.90
6518;DHT22;3292;48.944;9.240;2024-02-14T14:37:11;13.10;99.90
6518;DHT22;3292;48.944;9.240;2024-02-14T14:39:37;13.10;99.90
6518;DHT22;3292;48.944;9.240;2024-02-14T14:42:05;13.10;99.90
6518;DHT22;3292;48.944;9.240;2024-02-14T14:44:34;13.00;99.90
6518;DHT22;3292;48.944;9.240;2024-02-14T14:47:02;13.00;99.90
6518;DHT22;3292;48.944;9.240;2024-02-14T14:49:28;13.00;99.90
6518;DHT22;3292;48.944;9.240;2024-02-14T14:51:56;13.00;99.90
6518;DHT22;3292;48.944;9.240;2024-02-14T14:54:23;13.00;99.90
6518;DHT22;3292;48.944;9.240;2024-02-14T14:56:53;13.00;99.90
6518;DHT22;3292;48.944;9.240;2024-02-14T14:59:20;13.00;99.90
6518;DHT22;3292;48.944;9.240;2024-02-14T15:01:49;13.00;99.90
6518;DHT22;3292;48.944;9.240;2024-02-14T15:04:16;13.00;99.90
6518;DHT22;3292;48.944;9.240;2024-02-14T15:06:43;13.00;99.90
6518;DHT22;3292;48.944;9.240;2024-02-14T15:09:10;13.10;99.90
6518;DHT22;3292;48.944;9.240;2024-02-14T15:11:37;13.10;99.90
6518;DHT22;3292;48.944;9.240;2024-02-14T15:14:04;13.00;99.90
6518;DHT22;3292;48.944;9.240;2024-02-14T15:16:32;13.00;99.90
6518;DHT22;3292;48.944;9.240;2024-02-14T15:19:00;13.10;99.90
6518;DHT22;3292;48.944;9.240;2024-02-14T15:21:27;13.00;99.90
6518;DHT22;3292;48.944;9.240;2024-02-14T15:23:54;12.90;99.90
6518;DHT22;3292;48.944;9.240;2024-02-14T15:26:20;12.90;99.90
6518;DHT22;3292;48.944;9.240;2024-02-14T15:28:50;12.90;99.90
6518;DHT22;3292;48.944;9.240;2024-02-14T15:31:24;12.80;99.90
6518;DHT22;3292;48.944;9.240;2024-02-14T15:34:09;12.80;99.90
6518;DHT22;3292;48.944;9.240;2024-02-14T15:36:36;12.80;99.90
6518;DHT22;3292;48.944;9.240;2024-02-14T15:39:03;12.80;99.90
6518;DHT22;3292;48.944;9.240;2024-02-14T15:41:30;12.80;99.90
6518;DHT22;3292;48.944;9.240;2024-02-14T15:43:57;12.70;99.90
6518;DHT22;3292;48.944;9.240;2024-02-14T15:46:30;12.80;99.90
6518;DHT22;3292;48.944;9.240;2024-02-14T15:48:57;12.70;99.90
6518;DHT22;3292;48.944;9.240;2024-02-14T15:51:28;12.70;99.90
6518;DHT22;3292;48.944;9.240;2024-02-14T15:53:55;12.60;99.90
6518;DHT22;3292;48.944;9.240;2024-02-14T15:56:22;12.60;99.90
6518;DHT22;3292;48.944;9.240;2024-02-14T15:58:49;12.60;99.90
6518;DHT22;3292;48.944;9.240;2024-02-14T16:01:16;12.60;99.90
6518;DHT22;3292;48.944;9.240;2024-02-14T16:03:43;12.50;99.90
6518;DHT22;3292;48.944;9.240;2024-02-14T16:06:12;12.50;99.90
6518;DHT22;3292;48.944;9.240;2024-02-14T16:08:40;12.70;99.90
6518;DHT22;3292;48.944;9.240;2024-02-14T16:11:06;12.60;99.90
6518;DHT22;3292;48.944;9.240;2024-02-14T16:13:33;12.50;99.90
6518;DHT22;3292;48.944;9.240;2024-02-14T16:16:01;12.50;99.90